Time;durP1;ratioP1;P1;durP2;ratioP2;P2;SDS_P1;SDS_P2;PMS_P1;PMS_P2;Temp;Humidity;BMP_temperature;BMP_pressure;BME280_temperature;BME280_humidity;BME280_pressure;Samples;Min_cycle;Max_cycle;Signal;HPM_P1;HPM_P2
2023/05/28 00:01:48;;;;;;;6.55;2.13;;;;;;;;;;4945395;28;98590;-83
2023/05/28 00:04:16;;;;;;;7.40;2.28;;;;;;;;;;4945485;28;99008;-82
2023/05/28 00:06:43;;;;;;;5.38;2.13;;;;;;;;;;4942615;28;99403;-83
2023/05/28 00:09:10;;;;;;;5.57;2.05;;;;;;;;;;4943726;28;101042;-84
2023/05/28 00:11:36;;;;;;;7.05;2.20;;;;;;;;;;4945463;28;99140;-83
2023/05/28 00:14:03;;;;;;;4.93;1.90;;;;;;;;;;4947842;28;98858;-83
2023/05/28 00:16:29;;;;;;;5.75;2.13;;;;;;;;;;4950625;28;106246;-84
2023/05/28 00:18:56;;;;;;;4.80;1.77;;;;;;;;;;4947226;28;98990;-83
2023/05/28 00:21:23;;;;;;;5.20;1.98;;;;;;;;;;4947764;28;98903;-83
2023/05/28 00:23:49;;;;;;;6.47;2.08;;;;;;;;;;4947298;28;98402;-83
2023/05/28 00:26:16;;;;;;;5.25;2.00;;;;;;;;;;4968965;28;98639;-83
2023/05/28 00:28:44;;;;;;;4.93;2.17;;;;;;;;;;4967613;28;99898;-83
2023/05/28 00:31:11;;;;;;;7.30;2.28;;;;;;;;;;4966060;28;101390;-82
2023/05/28 00:33:38;;;;;;;6.00;2.20;;;;;;;;;;4982292;28;98516;-83
2023/05/28 00:36:05;;;;;;;6.03;2.15;;;;;;;;;;4985494;28;98078;-82
2023/05/28 00:38:32;;;;;;;5.60;2.05;;;;;;;;;;4975602;28;100380;-82
2023/05/28 00:40:58;;;;;;;6.57;2.20;;;;;;;;;;4971106;28;98993;-82
2023/05/28 00:43:25;;;;;;;5.55;2.10;;;;;;;;;;4970414;28;99199;-82
2023/05/28 00:45:52;;;;;;;5.78;2.03;;;;;;;;;;4977175;28;98518;-83
2023/05/28 00:48:19;;;;;;;6.53;2.13;;;;;;;;;;4974460;28;101930;-82
2023/05/28 00:50:46;;;;;;;5.20;2.03;;;;;;;;;;4967061;28;101053;-81
2023/05/28 00:53:13;;;;;;;4.97;2.00;;;;;;;;;;4968666;28;98652;-82
2023/05/28 00:55:39;;;;;;;7.15;2.10;;;;;;;;;;4961443;28;101830;-83
2023/05/28 00:58:07;;;;;;;6.30;2.35;;;;;;;;;;4950631;28;101736;-83
2023/05/28 01:00:35;;;;;;;5.95;2.13;;;;;;;;;;4955546;28;98517;-83
2023/05/28 01:03:02;;;;;;;6.22;2.10;;;;;;;;;;4950955;28;102681;-83
2023/05/28 01:05:34;;;;;;;6.38;2.28;;;;;;;;;;4950584;28;98501;-83
2023/05/28 01:08:02;;;;;;;6.00;2.08;;;;;;;;;;4953700;28;100169;-83
2023/05/28 01:10:31;;;;;;;5.50;1.90;;;;;;;;;;4951280;28;99220;-82
2023/05/28 01:12:58;;;;;;;5.72;2.10;;;;;;;;;;4949536;28;97965;-83
2023/05/28 01:15:25;;;;;;;5.28;2.10;;;;;;;;;;4951345;28;98556;-83
2023/05/28 01:17:57;;;;;;;6.18;2.05;;;;;;;;;;4952435;28;99089;-82
2023/05/28 01:20:26;;;;;;;6.15;2.15;;;;;;;;;;4951771;28;99412;-83
2023/05/28 01:22:55;;;;;;;7.18;2.10;;;;;;;;;;4951622;28;100347;-83
2023/05/28 01:25:22;;;;;;;6.20;2.22;;;;;;;;;;4946942;28;99851;-84
2023/05/28 01:27:49;;;;;;;5.85;2.17;;;;;;;;;;4948608;28;99113;-83
2023/05/28 01:30:16;;;;;;;6.07;2.10;;;;;;;;;;4946922;28;100119;-84
2023/05/28 01:32:43;;;;;;;5.43;2.10;;;;;;;;;;4944746;28;98832;-82
2023/05/28 01:35:10;;;;;;;6.13;2.20;;;;;;;;;;4945831;28;99958;-83
2023/05/28 01:37:39;;;;;;;6.20;2.35;;;;;;;;;;4945942;28;98081;-82
2023/05/28 01:40:06;;;;;;;5.72;2.00;;;;;;;;;;4945602;28;99178;-83
2023/05/28 01:42:34;;;;;;;5.28;2.17;;;;;;;;;;4932091;28;101331;-82
2023/05/28 01:45:00;;;;;;;;;;;;;;;;;;4947076;28;99284;-82
2023/05/28 01:47:32;;;;;;;7.88;2.20;;;;;;;;;;4947324;28;102170;-84
2023/05/28 01:49:59;;;;;;;7.20;2.10;;;;;;;;;;4946627;28;99165;-84
2023/05/28 01:52:27;;;;;;;6.07;2.10;;;;;;;;;;4947123;28;99403;-83
2023/05/28 01:54:54;;;;;;;8.68;2.45;;;;;;;;;;4941587;28;98610;-82
2023/05/28 01:57:21;;;;;;;;;;;;;;;;;;4944862;28;101952;-83
2023/05/28 01:59:48;;;;;;;6.15;2.20;;;;;;;;;;4946826;28;99324;-83
2023/05/28 02:02:14;;;;;;;5.95;2.17;;;;;;;;;;4945579;28;101493;-82
2023/05/28 02:04:41;;;;;;;5.85;2.00;;;;;;;;;;4947528;28;101876;-83
2023/05/28 02:07:07;;;;;;;6.20;2.20;;;;;;;;;;4945309;28;98812;-82
2023/05/28 02:09:34;;;;;;;6.07;2.03;;;;;;;;;;4945654;28;99925;-84
2023/05/28 02:12:02;;;;;;;5.60;2.20;;;;;;;;;;4946512;28;99097;-83
2023/05/28 02:14:29;;;;;;;5.30;1.90;;;;;;;;;;4944783;28;98948;-82
2023/05/28 02:16:58;;;;;;;6.18;2.33;;;;;;;;;;4944131;28;101638;-82
2023/05/28 02:19:24;;;;;;;6.72;2.28;;;;;;;;;;4946771;28;99081;-83
2023/05/28 02:21:52;;;;;;;5.32;2.15;;;;;;;;;;4946428;28;99741;-84
2023/05/28 02:24:18;;;;;;;5.40;1.95;;;;;;;;;;4946755;28;99911;-84
2023/05/28 02:26:45;;;;;;;5.93;1.98;;;;;;;;;;4950517;28;97763;-84
2023/05/28 02:29:11;;;;;;;5.10;2.05;;;;;;;;;;4946373;28;99168;-83
2023/05/28 02:31:38;;;;;;;6.75;2.25;;;;;;;;;;4946918;28;98836;-82
2023/05/28 02:34:05;;;;;;;5.25;2.00;;;;;;;;;;4937474;28;99926;-83
2023/05/28 02:36:32;;;;;;;6.68;2.08;;;;;;;;;;4944497;28;101162;-82
2023/05/28 02:39:00;;;;;;;7.05;2.30;;;;;;;;;;4945569;28;98769;-82
2023/05/28 02:41:26;;;;;;;;;;;;;;;;;;4945303;28;98873;-82
2023/05/28 02:43:55;;;;;;;5.22;2.08;;;;;;;;;;4946264;28;102337;-83
2023/05/28 02:46:22;;;;;;;6.15;2.30;;;;;;;;;;4946400;28;98687;-82
2023/05/28 02:48:49;;;;;;;5.43;2.22;;;;;;;;;;4946622;28;101045;-83
2023/05/28 02:51:18;;;;;;;6.85;2.25;;;;;;;;;;4940740;28;97889;-83
2023/05/28 02:54:01;;;;;;;5.40;2.38;;;;;;;;;;4956537;28;100456;-83
2023/05/28 02:56:28;;;;;;;6.35;2.35;;;;;;;;;;4959245;28;99098;-83
2023/05/28 02:58:55;;;;;;;6.50;2.10;;;;;;;;;;4945557;28;99609;-82
2023/05/28 03:01:22;;;;;;;6.65;2.40;;;;;;;;;;4945305;28;100862;-83
2023/05/28 03:03:49;;;;;;;;;;;;;;;;;;4944746;28;101122;-83
2023/05/28 03:06:16;;;;;;;6.28;2.20;;;;;;;;;;4946014;28;99004;-84
2023/05/28 03:08:49;;;;;;;5.35;1.90;;;;;;;;;;4943243;28;102398;-83
2023/05/28 03:11:17;;;;;;;5.88;2.30;;;;;;;;;;4948690;28;99255;-83
2023/05/28 03:13:45;;;;;;;6.43;2.17;;;;;;;;;;4944667;28;101562;-83
2023/05/28 03:16:12;;;;;;;6.57;2.17;;;;;;;;;;4944804;28;100786;-83
2023/05/28 03:18:38;;;;;;;7.07;2.20;;;;;;;;;;4923820;28;98664;-83
2023/05/28 03:21:07;;;;;;;5.65;2.10;;;;;;;;;;4937568;28;99038;-83
2023/05/28 03:23:34;;;;;;;5.38;1.88;;;;;;;;;;4943743;28;102419;-83
2023/05/28 03:26:09;;;;;;;5.35;2.20;;;;;;;;;;4944184;28;100143;-83
2023/05/28 03:28:36;;;;;;;6.47;2.20;;;;;;;;;;4944546;28;101321;-83
2023/05/28 03:31:28;;;;;;;6.45;1.95;;;;;;;;;;4946336;28;100165;-83
2023/05/28 03:33:56;;;;;;;5.57;2.15;;;;;;;;;;4937871;28;102161;-82
2023/05/28 03:36:24;;;;;;;5.15;2.08;;;;;;;;;;4946047;28;99758;-83
2023/05/28 03:38:51;;;;;;;6.22;2.00;;;;;;;;;;4945464;28;98596;-82
2023/05/28 03:41:20;;;;;;;5.65;1.98;;;;;;;;;;4928923;28;101688;-83
2023/05/28 03:43:46;;;;;;;4.15;1.85;;;;;;;;;;4948806;28;101636;-81
2023/05/28 03:46:13;;;;;;;4.68;1.90;;;;;;;;;;4927811;28;98647;-82
2023/05/28 03:48:41;;;;;;;6.18;2.20;;;;;;;;;;4926995;28;101252;-82
2023/05/28 03:51:09;;;;;;;;;;;;;;;;;;4948036;28;101285;-83
2023/05/28 03:53:36;;;;;;;5.78;2.08;;;;;;;;;;4970026;28;98802;-85
2023/05/28 03:56:03;;;;;;;6.07;2.20;;;;;;;;;;4958738;28;101850;-83
2023/05/28 03:58:30;;;;;;;6.07;2.10;;;;;;;;;;4964896;28;99018;-84
2023/05/28 04:00:59;;;;;;;5.50;1.80;;;;;;;;;;4961665;28;100305;-83
2023/05/28 04:03:26;;;;;;;6.38;2.13;;;;;;;;;;4964041;28;99178;-82
2023/05/28 04:05:53;;;;;;;5.95;1.92;;;;;;;;;;4964656;28;97870;-85
2023/05/28 04:08:21;;;;;;;7.13;2.05;;;;;;;;;;4962764;28;99995;-83
2023/05/28 04:10:48;;;;;;;5.15;1.98;;;;;;;;;;4961440;28;101481;-84
2023/05/28 04:13:16;;;;;;;5.82;2.03;;;;;;;;;;4951416;28;99327;-83
2023/05/28 04:15:43;;;;;;;5.72;2.22;;;;;;;;;;4952456;28;102404;-83
2023/05/28 04:18:10;;;;;;;5.18;2.20;;;;;;;;;;4944060;28;98977;-83
2023/05/28 04:20:37;;;;;;;5.05;1.90;;;;;;;;;;4959334;28;102554;-82
2023/05/28 04:23:04;;;;;;;5.72;2.10;;;;;;;;;;4967311;28;100142;-83
2023/05/28 04:25:31;;;;;;;6.05;2.17;;;;;;;;;;4935230;28;98660;-82
2023/05/28 04:28:00;;;;;;;5.35;2.10;;;;;;;;;;4946636;28;102079;-83
2023/05/28 04:30:27;;;;;;;6.20;2.00;;;;;;;;;;4946247;28;100621;-83
2023/05/28 04:32:55;;;;;;;5.43;2.05;;;;;;;;;;4945095;28;98592;-82
2023/05/28 04:35:22;;;;;;;6.07;1.95;;;;;;;;;;4948530;28;99323;-82
2023/05/28 04:37:50;;;;;;;5.75;2.08;;;;;;;;;;4948703;28;101454;-82
2023/05/28 04:40:18;;;;;;;6.72;2.22;;;;;;;;;;4946082;28;102723;-83
2023/05/28 04:42:47;;;;;;;6.07;2.10;;;;;;;;;;4932205;28;102040;-83
2023/05/28 04:45:14;;;;;;;5.40;1.90;;;;;;;;;;4956826;28;98578;-83
2023/05/28 04:47:43;;;;;;;7.50;2.40;;;;;;;;;;4946691;28;99077;-83
2023/05/28 04:50:10;;;;;;;6.03;2.55;;;;;;;;;;4945995;28;102108;-83
2023/05/28 04:52:37;;;;;;;6.75;2.50;;;;;;;;;;4947203;28;98604;-80
2023/05/28 04:55:04;;;;;;;7.72;2.55;;;;;;;;;;4948321;28;98804;-83
2023/05/28 04:57:32;;;;;;;7.20;2.63;;;;;;;;;;4945428;28;101895;-83
2023/05/28 05:00:00;;;;;;;8.02;3.08;;;;;;;;;;4949844;28;98588;-83
2023/05/28 05:02:26;;;;;;;6.70;2.83;;;;;;;;;;4946325;28;102769;-83
2023/05/28 05:04:53;;;;;;;8.32;2.75;;;;;;;;;;4946766;28;98654;-83
2023/05/28 05:07:22;;;;;;;;;;;;;;;;;;4952349;28;101332;-82
2023/05/28 05:09:48;;;;;;;6.57;2.35;;;;;;;;;;4953989;28;118398;-83
2023/05/28 05:12:15;;;;;;;7.20;2.97;;;;;;;;;;4949760;28;98585;-83
2023/05/28 05:14:43;;;;;;;7.10;2.78;;;;;;;;;;4953362;28;98846;-82
2023/05/28 05:17:10;;;;;;;7.15;2.85;;;;;;;;;;4954387;28;98420;-83
2023/05/28 05:19:37;;;;;;;7.55;2.88;;;;;;;;;;4943578;28;97986;-83
2023/05/28 05:22:04;;;;;;;6.70;2.50;;;;;;;;;;4948849;28;100898;-82
2023/05/28 05:24:31;;;;;;;6.80;2.80;;;;;;;;;;4946159;28;98595;-84
2023/05/28 05:26:58;;;;;;;7.85;2.70;;;;;;;;;;4944115;28;101350;-82
2023/05/28 05:29:25;;;;;;;7.88;2.83;;;;;;;;;;4941998;28;105612;-83
2023/05/28 05:31:51;;;;;;;7.90;2.95;;;;;;;;;;4966713;28;98512;-82
2023/05/28 05:34:18;;;;;;;7.20;2.70;;;;;;;;;;4949062;28;101624;-82
2023/05/28 05:36:52;;;;;;;7.03;3.10;;;;;;;;;;4949791;28;99073;-82
2023/05/28 05:39:37;;;;;;;6.35;2.53;;;;;;;;;;4957623;28;98838;-82
2023/05/28 05:42:22;;;;;;;6.10;2.50;;;;;;;;;;4954358;28;98650;-84
2023/05/28 05:44:52;;;;;;;6.68;2.58;;;;;;;;;;4965532;28;98179;-83
2023/05/28 05:47:20;;;;;;;;;;;;;;;;;;4965310;28;106180;-84
2023/05/28 05:49:48;;;;;;;5.78;2.30;;;;;;;;;;4966868;28;100568;-83
2023/05/28 05:52:15;;;;;;;6.88;2.72;;;;;;;;;;4964456;28;100319;-83
2023/05/28 05:54:42;;;;;;;6.43;2.50;;;;;;;;;;4964074;28;102125;-83
2023/05/28 05:57:11;;;;;;;6.75;2.60;;;;;;;;;;4956837;28;100758;-84
2023/05/28 05:59:40;;;;;;;6.20;2.63;;;;;;;;;;4960228;28;98908;-82
2023/05/28 06:02:07;;;;;;;5.35;2.30;;;;;;;;;;4956154;28;98787;-82
2023/05/28 06:04:35;;;;;;;7.20;2.65;;;;;;;;;;4954617;28;101719;-81
2023/05/28 06:07:14;;;;;;;7.50;2.67;;;;;;;;;;4952246;28;105994;-84
2023/05/28 06:10:08;;;;;;;5.82;2.30;;;;;;;;;;4967388;28;98380;-81
2023/05/28 06:12:36;;;;;;;7.53;2.63;;;;;;;;;;4950365;28;99720;-82
2023/05/28 06:15:03;;;;;;;6.22;2.47;;;;;;;;;;4965985;28;98658;-83
2023/05/28 06:17:31;;;;;;;5.95;2.10;;;;;;;;;;4953705;28;101164;-83
2023/05/28 06:20:01;;;;;;;7.32;2.60;;;;;;;;;;4945117;28;98598;-82
2023/05/28 06:22:29;;;;;;;5.80;2.00;;;;;;;;;;4944476;28;101237;-82
2023/05/28 06:24:56;;;;;;;7.20;2.40;;;;;;;;;;4944645;28;100596;-82
2023/05/28 06:27:23;;;;;;;6.28;2.30;;;;;;;;;;4947960;28;98704;-83
2023/05/28 06:29:49;;;;;;;5.60;2.40;;;;;;;;;;4944800;28;100621;-83
2023/05/28 06:32:16;;;;;;;5.28;2.00;;;;;;;;;;4946462;28;98688;-82
2023/05/28 06:34:43;;;;;;;6.07;2.28;;;;;;;;;;4944395;28;101970;-83
2023/05/28 06:37:10;;;;;;;6.43;2.53;;;;;;;;;;4944098;28;101846;-83
2023/05/28 06:39:37;;;;;;;7.10;2.45;;;;;;;;;;4944250;28;98707;-81
2023/05/28 06:42:05;;;;;;;5.75;2.40;;;;;;;;;;4944405;28;101178;-83
2023/05/28 06:44:38;;;;;;;6.80;2.40;;;;;;;;;;4943550;28;101428;-82
2023/05/28 06:47:11;;;;;;;6.70;2.25;;;;;;;;;;4945013;28;100066;-83
2023/05/28 06:49:38;;;;;;;6.05;2.58;;;;;;;;;;4947837;28;99496;-81
2023/05/28 06:52:05;;;;;;;6.90;2.63;;;;;;;;;;4945676;28;98566;-83
2023/05/28 06:54:32;;;;;;;7.05;2.40;;;;;;;;;;4947317;28;99227;-83
2023/05/28 06:56:59;;;;;;;6.50;2.17;;;;;;;;;;4944850;28;100206;-84
2023/05/28 06:59:45;;;;;;;6.85;2.28;;;;;;;;;;4942012;28;97811;-84
2023/05/28 07:02:32;;;;;;;7.07;2.35;;;;;;;;;;4945104;28;100503;-84
2023/05/28 07:05:22;;;;;;;5.25;2.10;;;;;;;;;;4944212;28;103415;-84
2023/05/28 07:07:49;;;;;;;6.38;2.20;;;;;;;;;;4929158;28;99352;-83
2023/05/28 07:10:16;;;;;;;5.80;2.50;;;;;;;;;;4947333;28;100853;-84
2023/05/28 07:12:43;;;;;;;5.63;2.20;;;;;;;;;;4931476;28;101813;-82
2023/05/28 07:15:10;;;;;;;7.75;2.67;;;;;;;;;;4945122;28;101713;-82
2023/05/28 07:17:39;;;;;;;5.75;2.30;;;;;;;;;;4944746;28;101370;-83
2023/05/28 07:20:06;;;;;;;6.63;2.40;;;;;;;;;;4945616;28;98975;-84
2023/05/28 07:22:46;;;;;;;7.60;2.40;;;;;;;;;;4944759;28;101856;-82
2023/05/28 07:25:13;;;;;;;5.50;2.30;;;;;;;;;;4946456;28;98755;-83
2023/05/28 07:27:40;;;;;;;6.05;2.28;;;;;;;;;;4944785;28;106306;-82
2023/05/28 07:30:07;;;;;;;7.25;2.35;;;;;;;;;;4957623;28;100915;-82
2023/05/28 07:32:34;;;;;;;7.28;2.45;;;;;;;;;;4963511;28;102991;-81
2023/05/28 07:35:01;;;;;;;8.00;2.60;;;;;;;;;;4952811;28;98585;-84
2023/05/28 07:37:28;;;;;;;7.25;2.63;;;;;;;;;;4963385;28;100486;-83
2023/05/28 07:39:55;;;;;;;5.78;2.28;;;;;;;;;;4964207;28;98660;-84
2023/05/28 07:42:22;;;;;;;6.75;2.35;;;;;;;;;;4956988;28;98760;-83
2023/05/28 07:44:58;;;;;;;6.43;2.30;;;;;;;;;;4966218;28;101035;-82
2023/05/28 07:47:25;;;;;;;6.43;2.42;;;;;;;;;;4945849;28;98741;-83
2023/05/28 07:50:13;;;;;;;6.50;2.40;;;;;;;;;;4934752;28;98627;-82
2023/05/28 07:52:55;;;;;;;5.93;2.30;;;;;;;;;;4950778;28;101456;-83
2023/05/28 07:55:22;;;;;;;6.32;2.40;;;;;;;;;;4971114;28;98931;-82
2023/05/28 07:57:49;;;;;;;5.65;2.40;;;;;;;;;;4969611;28;101949;-82
2023/05/28 08:00:17;;;;;;;7.57;2.10;;;;;;;;;;4970588;28;98608;-82
2023/05/28 08:02:52;;;;;;;5.32;2.20;;;;;;;;;;4969272;28;98669;-82
2023/05/28 08:05:28;;;;;;;5.55;2.00;;;;;;;;;;4938488;28;100124;-83
2023/05/28 08:07:54;;;;;;;7.32;2.50;;;;;;;;;;4951415;28;98608;-82
2023/05/28 08:10:21;;;;;;;5.25;2.00;;;;;;;;;;4972462;28;101439;-82
2023/05/28 08:12:48;;;;;;;6.65;2.20;;;;;;;;;;4957887;28;101855;-82
2023/05/28 08:15:15;;;;;;;7.85;2.20;;;;;;;;;;4954654;28;97872;-84
2023/05/28 08:17:41;;;;;;;5.47;2.17;;;;;;;;;;4943775;28;101214;-83
2023/05/28 08:20:12;;;;;;;5.80;2.30;;;;;;;;;;4964941;28;98703;-82
2023/05/28 08:22:49;;;;;;;5.88;2.13;;;;;;;;;;4965788;28;99264;-83
2023/05/28 08:25:16;;;;;;;5.28;2.20;;;;;;;;;;4952409;28;101029;-83
2023/05/28 08:27:43;;;;;;;;;;;;;;;;;;4958100;28;98472;-82
2023/05/28 08:30:12;;;;;;;4.75;2.10;;;;;;;;;;4971545;28;112718;-83
2023/05/28 08:32:50;;;;;;;5.82;2.20;;;;;;;;;;4952764;28;99591;-83
2023/05/28 08:35:17;;;;;;;5.10;2.17;;;;;;;;;;4961253;28;98444;-82
2023/05/28 08:37:44;;;;;;;5.57;2.10;;;;;;;;;;4957825;28;98588;-83
2023/05/28 08:40:23;;;;;;;6.25;1.90;;;;;;;;;;4947339;28;98491;-83
2023/05/28 08:42:50;;;;;;;8.35;2.38;;;;;;;;;;4960422;28;106357;-83
2023/05/28 08:45:17;;;;;;;6.05;2.22;;;;;;;;;;4953710;28;99928;-83
2023/05/28 08:47:47;;;;;;;6.30;1.90;;;;;;;;;;4949009;28;99991;-82
2023/05/28 08:50:18;;;;;;;7.03;2.13;;;;;;;;;;4948418;28;101946;-83
2023/05/28 08:52:59;;;;;;;5.10;1.85;;;;;;;;;;4947039;28;101663;-82
2023/05/28 08:55:27;;;;;;;4.97;2.10;;;;;;;;;;4954793;28;99316;-82
2023/05/28 08:58:05;;;;;;;7.25;2.50;;;;;;;;;;4965227;28;100988;-82
2023/05/28 09:00:32;;;;;;;5.22;1.88;;;;;;;;;;4968696;28;103464;-82
2023/05/28 09:03:19;;;;;;;6.43;2.20;;;;;;;;;;4966532;28;99314;-83
2023/05/28 09:05:47;;;;;;;5.50;2.10;;;;;;;;;;4980843;28;99490;-83
2023/05/28 09:08:14;;;;;;;6.38;2.33;;;;;;;;;;4956651;28;98569;-83
2023/05/28 09:10:43;;;;;;;7.75;2.20;;;;;;;;;;4951532;28;101295;-82
2023/05/28 09:13:10;;;;;;;5.55;2.00;;;;;;;;;;4963213;28;101675;-82
2023/05/28 09:15:37;;;;;;;5.55;2.05;;;;;;;;;;4947807;28;98519;-81
2023/05/28 09:18:07;;;;;;;6.18;2.30;;;;;;;;;;4958831;28;99338;-83
2023/05/28 09:20:35;;;;;;;4.93;2.00;;;;;;;;;;4955235;28;99074;-82
2023/05/28 09:23:02;;;;;;;;;;;;;;;;;;4947749;28;98688;-83
2023/05/28 09:25:48;;;;;;;5.90;2.13;;;;;;;;;;4953314;28;98820;-84
2023/05/28 09:28:19;;;;;;;4.57;2.00;;;;;;;;;;4947934;28;99035;-83
2023/05/28 09:30:46;;;;;;;5.82;2.20;;;;;;;;;;4950401;28;99904;-83
2023/05/28 09:33:17;;;;;;;5.47;2.10;;;;;;;;;;4949147;28;101980;-83
2023/05/28 09:35:44;;;;;;;5.93;2.13;;;;;;;;;;4932812;28;98735;-81
2023/05/28 09:38:11;;;;;;;4.75;2.10;;;;;;;;;;4948268;28;99372;-84
2023/05/28 09:40:38;;;;;;;5.95;2.08;;;;;;;;;;4947204;28;99324;-81
2023/05/28 09:43:10;;;;;;;6.28;2.10;;;;;;;;;;4954450;28;98608;-82
2023/05/28 09:45:38;;;;;;;5.63;2.10;;;;;;;;;;4963327;28;100252;-82
2023/05/28 09:48:11;;;;;;;5.25;1.95;;;;;;;;;;4961703;28;98554;-83
2023/05/28 09:50:38;;;;;;;5.43;2.00;;;;;;;;;;4934085;28;99574;-83
2023/05/28 09:53:07;;;;;;;6.28;1.90;;;;;;;;;;4964229;28;99669;-83
2023/05/28 09:55:35;;;;;;;5.57;1.90;;;;;;;;;;4972229;28;97893;-82
2023/05/28 09:58:06;;;;;;;5.32;1.90;;;;;;;;;;4962485;28;98470;-84
2023/05/28 10:00:38;;;;;;;6.45;2.10;;;;;;;;;;4951948;28;100496;-81
2023/05/28 10:03:11;;;;;;;6.32;2.17;;;;;;;;;;4962437;28;99526;-83
2023/05/28 10:06:03;;;;;;;5.07;1.90;;;;;;;;;;4957583;28;98651;-84
2023/05/28 10:08:37;;;;;;;5.78;2.03;;;;;;;;;;4975520;28;101094;-83
2023/05/28 10:11:09;;;;;;;6.53;2.00;;;;;;;;;;4970793;28;103418;-81
2023/05/28 10:13:40;;;;;;;7.15;2.00;;;;;;;;;;4974090;28;98623;-83
2023/05/28 10:16:08;;;;;;;5.53;2.10;;;;;;;;;;4967654;28;99002;-82
2023/05/28 10:18:38;;;;;;;4.90;1.92;;;;;;;;;;4966677;28;98750;-85
2023/05/28 10:21:09;;;;;;;5.88;1.88;;;;;;;;;;4946281;28;97903;-84
2023/05/28 10:23:36;;;;;;;5.18;1.83;;;;;;;;;;4957834;28;98583;-84
2023/05/28 10:26:06;;;;;;;4.75;1.80;;;;;;;;;;4939332;28;98603;-85
2023/05/28 10:28:32;;;;;;;5.38;2.10;;;;;;;;;;4956784;28;99873;-84
2023/05/28 10:31:07;;;;;;;6.93;2.10;;;;;;;;;;4953369;28;98501;-83
2023/05/28 10:33:46;;;;;;;5.88;2.10;;;;;;;;;;4957681;28;100396;-83
2023/05/28 10:36:16;;;;;;;4.93;2.10;;;;;;;;;;4944923;28;98522;-82
2023/05/28 10:38:52;;;;;;;5.90;2.17;;;;;;;;;;4961883;28;99126;-82
2023/05/28 10:41:19;;;;;;;;;;;;;;;;;;4962184;28;100896;-83
2023/05/28 10:43:47;;;;;;;4.47;2.00;;;;;;;;;;4983862;28;98339;-84
2023/05/28 10:46:20;;;;;;;5.35;1.92;;;;;;;;;;4976670;28;100332;-83
2023/05/28 10:49:20;;;;;;;6.05;1.90;;;;;;;;;;4967582;28;100187;-82
2023/05/28 10:51:54;;;;;;;5.00;1.92;;;;;;;;;;4946157;28;98707;-83
2023/05/28 10:54:30;;;;;;;4.45;1.90;;;;;;;;;;4963666;28;99995;-82
2023/05/28 10:57:09;;;;;;;6.75;1.90;;;;;;;;;;4962207;28;100359;-83
2023/05/28 10:59:46;;;;;;;5.40;2.05;;;;;;;;;;4958247;28;100131;-84
2023/05/28 11:02:22;;;;;;;6.65;1.98;;;;;;;;;;4966698;28;100153;-83
2023/05/28 11:04:49;;;;;;;4.97;1.92;;;;;;;;;;4953790;28;98599;-83
2023/05/28 11:07:18;;;;;;;4.90;2.10;;;;;;;;;;4952887;28;98774;-85
2023/05/28 11:09:55;;;;;;;5.43;1.90;;;;;;;;;;4946042;28;99009;-82
2023/05/28 11:12:22;;;;;;;5.75;1.95;;;;;;;;;;4948202;28;98240;-83
2023/05/28 11:14:50;;;;;;;5.03;2.00;;;;;;;;;;4945764;28;101653;-83
2023/05/28 11:17:16;;;;;;;4.32;1.83;;;;;;;;;;4948406;28;101973;-83
2023/05/28 11:19:44;;;;;;;4.55;1.90;;;;;;;;;;4947354;28;99564;-83
2023/05/28 11:22:11;;;;;;;5.60;1.95;;;;;;;;;;4933631;28;98516;-83
2023/05/28 11:24:59;;;;;;;4.82;1.95;;;;;;;;;;4946825;28;98386;-81
2023/05/28 11:27:27;;;;;;;6.20;2.00;;;;;;;;;;4950154;28;98962;-82
2023/05/28 11:29:56;;;;;;;5.30;1.73;;;;;;;;;;4964686;28;100085;-83
2023/05/28 11:32:23;;;;;;;5.03;1.83;;;;;;;;;;4964335;28;98529;-83
2023/05/28 11:34:51;;;;;;;5.95;2.00;;;;;;;;;;4966643;28;99165;-83
2023/05/28 11:37:25;;;;;;;6.10;2.15;;;;;;;;;;4936480;28;98312;-83
2023/05/28 11:39:53;;;;;;;5.13;1.90;;;;;;;;;;4950729;28;98883;-83
2023/05/28 11:42:20;;;;;;;4.78;1.80;;;;;;;;;;4947053;28;99180;-83
2023/05/28 11:44:49;;;;;;;;;;;;;;;;;;4947033;28;99270;-83
2023/05/28 11:47:17;;;;;;;5.35;1.80;;;;;;;;;;4948133;28;111519;-83
2023/05/28 11:49:44;;;;;;;5.78;1.90;;;;;;;;;;4951154;28;99310;-83
2023/05/28 11:52:11;;;;;;;;;;;;;;;;;;4948504;28;98769;-83
2023/05/28 11:54:39;;;;;;;4.70;1.80;;;;;;;;;;4952956;28;99090;-83
2023/05/28 11:57:06;;;;;;;4.20;1.70;;;;;;;;;;4949267;28;99307;-83
2023/05/28 11:59:34;;;;;;;5.85;1.85;;;;;;;;;;4952387;28;98617;-83
2023/05/28 12:02:18;;;;;;;4.95;2.00;;;;;;;;;;4950823;28;98314;-85
2023/05/28 12:04:54;;;;;;;4.72;1.67;;;;;;;;;;4932152;28;98628;-84
2023/05/28 12:07:21;;;;;;;5.93;2.10;;;;;;;;;;4948358;28;98695;-84
2023/05/28 12:09:48;;;;;;;4.57;1.80;;;;;;;;;;4946467;28;100238;-83
2023/05/28 12:12:15;;;;;;;5.03;2.22;;;;;;;;;;4947486;28;98841;-84
2023/05/28 12:14:45;;;;;;;4.57;1.80;;;;;;;;;;4946363;28;99000;-83
2023/05/28 12:17:13;;;;;;;4.93;1.92;;;;;;;;;;4945647;28;99215;-85
2023/05/28 12:19:40;;;;;;;5.63;1.85;;;;;;;;;;4947668;28;98586;-83
2023/05/28 12:22:18;;;;;;;5.63;1.98;;;;;;;;;;4949887;28;100035;-84
2023/05/28 12:24:50;;;;;;;5.75;2.00;;;;;;;;;;4952908;28;99023;-84
2023/05/28 12:27:18;;;;;;;5.57;2.05;;;;;;;;;;4948153;28;99589;-85
2023/05/28 12:29:45;;;;;;;5.38;1.90;;;;;;;;;;4946432;28;100447;-85
2023/05/28 12:32:12;;;;;;;;;;;;;;;;;;4948404;28;98919;-84
2023/05/28 12:34:39;;;;;;;5.28;1.85;;;;;;;;;;4945810;28;99577;-83
2023/05/28 12:37:06;;;;;;;5.35;1.75;;;;;;;;;;4945430;28;99443;-85
2023/05/28 12:39:35;;;;;;;4.47;1.95;;;;;;;;;;4945009;28;98581;-84
2023/05/28 12:42:03;;;;;;;4.82;2.00;;;;;;;;;;4936832;28;99551;-85
2023/05/28 12:44:29;;;;;;;5.05;1.95;;;;;;;;;;4951558;28;101860;-84
2023/05/28 12:46:56;;;;;;;5.50;2.13;;;;;;;;;;4948469;28;99167;-85
2023/05/28 12:49:23;;;;;;;4.45;1.90;;;;;;;;;;4950164;28;99325;-84
2023/05/28 12:51:53;;;;;;;5.53;1.90;;;;;;;;;;4950857;28;97758;-85
2023/05/28 12:54:20;;;;;;;5.70;1.95;;;;;;;;;;4949155;28;98543;-84
2023/05/28 12:56:47;;;;;;;5.85;2.10;;;;;;;;;;4948602;28;99235;-84
2023/05/28 12:59:27;;;;;;;5.50;2.13;;;;;;;;;;4949296;28;99987;-84
2023/05/28 13:01:54;;;;;;;5.00;2.03;;;;;;;;;;4949229;28;102819;-84
2023/05/28 13:04:21;;;;;;;5.53;2.10;;;;;;;;;;4949090;28;99142;-84
2023/05/28 13:06:48;;;;;;;4.65;1.92;;;;;;;;;;4952719;28;98511;-83
2023/05/28 13:09:14;;;;;;;5.20;1.92;;;;;;;;;;4952881;28;100339;-83
2023/05/28 13:11:41;;;;;;;5.78;2.17;;;;;;;;;;4952866;28;98904;-83
2023/05/28 13:14:08;;;;;;;6.00;2.08;;;;;;;;;;4951135;28;98774;-84
2023/05/28 13:16:35;;;;;;;4.35;1.88;;;;;;;;;;4958762;28;98275;-82
2023/05/28 13:19:02;;;;;;;7.00;2.00;;;;;;;;;;4954692;28;98675;-85
2023/05/28 13:21:33;;;;;;;6.32;2.03;;;;;;;;;;4968888;28;98879;-83
2023/05/28 13:24:00;;;;;;;5.90;1.90;;;;;;;;;;4955501;28;99199;-83
2023/05/28 13:26:28;;;;;;;5.32;2.00;;;;;;;;;;4957674;28;98582;-83
2023/05/28 13:28:55;;;;;;;5.40;2.00;;;;;;;;;;4957752;28;106129;-83
2023/05/28 13:31:21;;;;;;;6.07;2.20;;;;;;;;;;4951657;28;99209;-84
2023/05/28 13:33:48;;;;;;;5.68;2.15;;;;;;;;;;4947252;28;100046;-84
2023/05/28 13:36:14;;;;;;;5.25;1.92;;;;;;;;;;4947536;28;99028;-85
2023/05/28 13:38:42;;;;;;;6.57;2.10;;;;;;;;;;4934472;28;99074;-84
2023/05/28 13:41:10;;;;;;;5.63;2.28;;;;;;;;;;4948686;28;98650;-84
2023/05/28 13:43:39;;;;;;;5.28;2.28;;;;;;;;;;4947836;28;100549;-85
2023/05/28 13:46:06;;;;;;;5.15;1.95;;;;;;;;;;4948404;28;98551;-84
2023/05/28 13:48:33;;;;;;;5.95;2.10;;;;;;;;;;4946216;28;99957;-85
2023/05/28 13:51:00;;;;;;;5.30;1.95;;;;;;;;;;4948180;28;99114;-84
2023/05/28 13:53:28;;;;;;;6.38;2.10;;;;;;;;;;4938882;28;98909;-84
2023/05/28 13:55:54;;;;;;;5.63;2.03;;;;;;;;;;4947770;28;99210;-84
2023/05/28 13:58:22;;;;;;;5.68;1.98;;;;;;;;;;4946311;28;98668;-84
2023/05/28 14:00:49;;;;;;;5.28;2.10;;;;;;;;;;4946418;28;99935;-84
2023/05/28 14:03:16;;;;;;;5.22;2.13;;;;;;;;;;4948778;28;99112;-84
2023/05/28 14:05:47;;;;;;;4.78;1.90;;;;;;;;;;4941844;28;97850;-85
2023/05/28 14:08:13;;;;;;;5.93;1.92;;;;;;;;;;4944732;28;98596;-85
2023/05/28 14:10:40;;;;;;;5.63;2.20;;;;;;;;;;4949770;28;99347;-84
2023/05/28 14:13:07;;;;;;;5.25;2.22;;;;;;;;;;4946186;28;99451;-84
2023/05/28 14:15:33;;;;;;;6.43;2.20;;;;;;;;;;4947882;28;99008;-84
2023/05/28 14:18:00;;;;;;;5.03;2.20;;;;;;;;;;4948664;28;98662;-85
2023/05/28 14:20:27;;;;;;;4.78;2.03;;;;;;;;;;4947317;28;100303;-84
2023/05/28 14:22:54;;;;;;;5.20;2.20;;;;;;;;;;4947135;28;99497;-84
2023/05/28 14:25:20;;;;;;;5.40;1.90;;;;;;;;;;4948071;28;98509;-84
2023/05/28 14:27:47;;;;;;;5.70;2.15;;;;;;;;;;4948279;28;98785;-84
2023/05/28 14:30:25;;;;;;;6.00;2.10;;;;;;;;;;4948308;28;99810;-84
2023/05/28 14:32:51;;;;;;;6.15;2.05;;;;;;;;;;4951677;28;98554;-82
2023/05/28 14:35:20;;;;;;;5.55;2.20;;;;;;;;;;4947501;28;99425;-84
2023/05/28 14:37:49;;;;;;;5.03;2.10;;;;;;;;;;4951257;28;99867;-84
2023/05/28 14:40:20;;;;;;;5.68;2.20;;;;;;;;;;4947585;28;99364;-84
2023/05/28 14:42:47;;;;;;;6.13;2.10;;;;;;;;;;4947221;28;99308;-83
2023/05/28 14:45:13;;;;;;;5.15;2.10;;;;;;;;;;4945898;28;98775;-84
2023/05/28 14:47:40;;;;;;;5.70;2.35;;;;;;;;;;4948403;28;99176;-84
2023/05/28 14:50:07;;;;;;;4.97;2.13;;;;;;;;;;4947239;28;99825;-84
2023/05/28 14:52:34;;;;;;;;;;;;;;;;;;4948084;28;98811;-83
2023/05/28 14:55:00;;;;;;;5.55;2.00;;;;;;;;;;4951994;28;117280;-83